FACT/CPT METAR and TAF weather

Enter ICAO airport designator
Station Type Date Time Source
FACT METAR 2018/12/13 00:00 UTC NOAA

FACT 130000Z 03002KT 9999 FEW050 15/10 Q1020 NOSIG


Station Type Date Time Source
FACT Decoded METAR 2018/12/13 00:00 UTC NOAA

Cape Town, Cape Town International Airport, South Africa (FACT) 33-59S 018-36E 0M
Dec 12, 2018 - 07:00 PM EST / 2018.12.13 0000 UTC
Wind: from the NNE (030 degrees) at 2 MPH (2 KT):0
Visibility: greater than 7 mile(s):0
Sky conditions: mostly clear
Temperature: 59 F (15 C)
Dew Point: 50 F (10 C)
Relative Humidity: 72%
Pressure (altimeter): 30.12 in. Hg (1020 hPa)
ob: FACT 130000Z 03002KT 9999 FEW050 15/10 Q1020 NOSIG
cycle: 0

Station Type Date Time Source
FACT TAF 2018/12/12 18:12 UTC NOAA

TAF TAF FACT 121600Z 1218/1324 24008KT 9999 SCT035
FM122100 VRB03KT 9999 SCT020 PROB40
TEMPO 1305/1309 BKN015
BECMG 1307/1309 16012KT TX24/1312Z TN15/1304Z


Example: see airport list